createdAt,value
2022-10-23T00:01:02.779Z,707.87
2022-10-23T00:03:30.775Z,729.10
2022-10-23T00:05:58.905Z,716.00
2022-10-23T00:08:28.340Z,722.60
2022-10-23T00:10:56.418Z,725.43
2022-10-23T00:13:24.648Z,731.57
2022-10-23T00:18:25.553Z,740.97
2022-10-23T00:20:53.643Z,713.67
2022-10-23T00:23:21.665Z,720.70
2022-10-23T00:25:51.067Z,726.90
2022-10-23T00:28:19.410Z,720.27
2022-10-23T00:30:47.475Z,731.77
2022-10-23T00:33:16.997Z,743.20
2022-10-23T00:35:45.184Z,720.93
2022-10-23T00:38:13.742Z,739.90
2022-10-23T00:40:46.629Z,747.50
2022-10-23T00:43:22.846Z,709.17
2022-10-23T00:45:50.962Z,704.60
2022-10-23T00:48:19.621Z,723.30
2022-10-23T00:50:51.091Z,740.30
2022-10-23T00:53:20.387Z,713.93
2022-10-23T00:55:49.749Z,733.73
2022-10-23T00:58:20.480Z,750.80
2022-10-23T01:00:50.230Z,740.27
2022-10-23T01:03:22.081Z,737.60
2022-10-23T01:05:52.287Z,727.17
2022-10-23T01:08:24.830Z,737.17
2022-10-23T01:10:55.793Z,731.97
2022-10-23T01:13:36.691Z,730.20
2022-10-23T01:16:11.460Z,729.60
2022-10-23T01:18:42.997Z,719.80
2022-10-23T01:21:15.340Z,732.50
2022-10-23T01:24:04.410Z,747.37
2022-10-23T01:26:39.969Z,715.20
2022-10-23T01:29:21.159Z,717.70
2022-10-23T01:31:51.725Z,726.50
2022-10-23T01:34:23.598Z,719.40
2022-10-23T01:36:53.735Z,721.93
2022-10-23T01:39:23.905Z,747.50
2022-10-23T01:41:53.448Z,731.60
2022-10-23T01:44:31.550Z,762.23
2022-10-23T01:47:00.318Z,757.03
2022-10-23T01:49:31.607Z,728.27
2022-10-23T01:52:02.950Z,739.17
2022-10-23T01:54:34.640Z,752.43
2022-10-23T01:57:03.732Z,743.17
2022-10-23T01:59:37.988Z,770.67
2022-10-23T02:02:08.401Z,753.63
2022-10-23T02:04:41.652Z,745.20
2022-10-23T02:07:10.082Z,742.87
2022-10-23T02:09:38.399Z,745.50
2022-10-23T02:12:09.108Z,743.87
2022-10-23T02:14:43.848Z,728.13
2022-10-23T02:17:16.866Z,731.47
2022-10-23T02:19:48.481Z,754.20
2022-10-23T02:22:21.698Z,731.10
2022-10-23T02:24:53.038Z,763.47
2022-10-23T02:27:25.504Z,764.87
2022-10-23T02:30:04.139Z,770.00
2022-10-23T02:32:32.526Z,781.10
2022-10-23T02:35:01.171Z,777.33
2022-10-23T02:37:29.213Z,773.37
2022-10-23T02:39:57.309Z,756.93
2022-10-23T02:42:29.048Z,745.40
2022-10-23T02:45:04.750Z,774.97
2022-10-23T02:47:41.631Z,751.60
2022-10-23T02:50:15.875Z,760.63
2022-10-23T02:52:51.928Z,784.53
2022-10-23T02:55:28.263Z,780.10
2022-10-23T02:57:58.996Z,738.93
2022-10-23T03:00:31.316Z,742.30
2022-10-23T03:03:00.920Z,776.87
2022-10-23T03:05:34.129Z,772.30
2022-10-23T03:08:05.234Z,736.83
2022-10-23T03:10:33.457Z,779.53
2022-10-23T03:13:01.469Z,758.47
2022-10-23T03:15:36.560Z,776.30
2022-10-23T03:18:04.891Z,766.50
2022-10-23T03:20:33.046Z,758.50
2022-10-23T03:23:01.239Z,760.40
2022-10-23T03:25:29.621Z,766.50
2022-10-23T03:28:00.266Z,758.17
2022-10-23T03:30:28.402Z,767.40
2022-10-23T03:32:57.772Z,744.87
2022-10-23T03:35:25.812Z,746.50
2022-10-23T03:37:53.843Z,764.03
2022-10-23T03:40:22.210Z,765.90
2022-10-23T03:42:50.281Z,758.80
2022-10-23T03:45:20.559Z,779.63
2022-10-23T03:47:51.682Z,760.10
2022-10-23T03:50:21.568Z,768.33
2022-10-23T03:52:49.747Z,765.63
2022-10-23T03:55:18.247Z,769.57
2022-10-23T03:57:46.282Z,768.10
2022-10-23T04:00:14.631Z,766.67
2022-10-23T04:02:46.054Z,763.73
2022-10-23T04:05:14.556Z,764.03
2022-10-23T04:07:52.881Z,758.07
2022-10-23T04:10:20.952Z,745.23
2022-10-23T04:12:48.943Z,764.07
2022-10-23T04:15:17.144Z,749.90
2022-10-23T04:17:47.326Z,767.87
2022-10-23T04:20:15.621Z,788.00
2022-10-23T04:22:43.960Z,768.33
2022-10-23T04:25:14.042Z,761.00
2022-10-23T04:27:42.253Z,760.37
2022-10-23T04:30:12.079Z,763.53
2022-10-23T04:32:40.422Z,773.83
2022-10-23T04:35:09.322Z,769.53
2022-10-23T04:37:37.362Z,763.10
2022-10-23T04:40:08.205Z,770.73
2022-10-23T04:42:39.399Z,761.47
2022-10-23T04:45:08.580Z,774.13
2022-10-23T04:47:37.024Z,776.57
2022-10-23T04:50:06.500Z,772.23
2022-10-23T04:52:58.506Z,789.90
2022-10-23T04:56:02.283Z,776.87
2022-10-23T04:58:51.473Z,774.47
2022-10-23T05:01:19.961Z,787.83
2022-10-23T05:03:49.279Z,798.10
2022-10-23T05:06:17.356Z,772.77
2022-10-23T05:08:51.313Z,788.10
2022-10-23T05:11:37.937Z,776.37
2022-10-23T05:14:10.752Z,764.53
2022-10-23T05:16:41.173Z,766.27
2022-10-23T05:19:12.622Z,770.30
2022-10-23T05:21:41.709Z,749.33
2022-10-23T05:24:11.586Z,782.70
2022-10-23T05:26:40.195Z,781.10
2022-10-23T05:29:10.809Z,776.17
2022-10-23T05:31:39.696Z,779.50
2022-10-23T05:34:13.530Z,798.20
2022-10-23T05:36:45.231Z,779.17
2022-10-23T05:39:14.680Z,786.13
2022-10-23T05:41:42.931Z,793.60
2022-10-23T05:44:12.499Z,756.97
2022-10-23T05:46:49.626Z,746.03
2022-10-23T05:49:43.980Z,761.63
2022-10-23T05:52:48.511Z,784.40
2022-10-23T05:55:48.283Z,762.20
2022-10-23T05:58:36.718Z,778.33
2022-10-23T06:01:24.731Z,777.87
2022-10-23T06:04:00.050Z,791.90
2022-10-23T06:06:46.481Z,774.53
2022-10-23T06:09:15.941Z,759.60
2022-10-23T06:11:44.780Z,768.57
2022-10-23T06:14:18.788Z,755.80
2022-10-23T06:16:48.340Z,771.80
2022-10-23T06:19:16.379Z,772.27
2022-10-23T06:21:45.106Z,776.23
2022-10-23T06:24:15.676Z,786.80
2022-10-23T06:26:54.284Z,771.13
2022-10-23T06:29:31.509Z,768.10
2022-10-23T06:32:00.924Z,770.27
2022-10-23T06:34:29.044Z,767.20
2022-10-23T06:36:57.239Z,765.40
2022-10-23T06:39:43.874Z,760.73
2022-10-23T06:42:21.254Z,778.20
2022-10-23T06:45:09.901Z,763.43
2022-10-23T06:47:39.301Z,756.77
2022-10-23T06:50:13.078Z,767.33
2022-10-23T06:52:47.293Z,758.40
2022-10-23T06:55:17.787Z,746.60
2022-10-23T06:57:46.358Z,750.60
2022-10-23T07:00:15.066Z,739.87
2022-10-23T07:03:02.612Z,741.03
2022-10-23T07:05:31.896Z,746.70
2022-10-23T07:07:59.954Z,771.10
2022-10-23T07:10:33.817Z,761.97
2022-10-23T07:13:03.205Z,790.23
2022-10-23T07:15:34.262Z,808.07
2022-10-23T07:18:03.958Z,820.63
2022-10-23T07:20:46.993Z,814.63
2022-10-23T07:23:16.540Z,844.47
2022-10-23T07:25:48.150Z,853.17
2022-10-23T07:28:22.255Z,859.87
2022-10-23T07:30:57.593Z,873.47
2022-10-23T07:33:27.489Z,896.03
2022-10-23T07:36:05.977Z,857.03
2022-10-23T07:38:34.647Z,835.93
2022-10-23T07:41:03.594Z,841.20
2022-10-23T07:43:34.006Z,836.37
2022-10-23T07:46:02.238Z,789.20
2022-10-23T07:48:36.484Z,784.53
2022-10-23T07:51:08.466Z,787.70
2022-10-23T07:53:40.746Z,731.23
2022-10-23T07:56:29.914Z,709.80
2022-10-23T07:59:16.808Z,746.30
2022-10-23T08:01:53.818Z,705.50
2022-10-23T08:04:27.170Z,750.67
2022-10-23T08:07:02.664Z,611.90
2022-10-23T08:09:38.074Z,645.80
2022-10-23T08:12:06.616Z,601.13
2022-10-23T08:14:34.644Z,606.30
2022-10-23T08:17:03.253Z,597.30
2022-10-23T08:19:51.425Z,570.03
2022-10-23T08:22:21.208Z,610.80
2022-10-23T08:24:49.772Z,568.77
2022-10-23T08:27:17.925Z,565.23
2022-10-23T08:29:48.188Z,551.00
2022-10-23T08:32:16.327Z,565.57
2022-10-23T08:34:55.512Z,610.30
2022-10-23T08:37:25.634Z,592.20
2022-10-23T08:39:54.878Z,604.60
2022-10-23T08:42:42.487Z,615.10
2022-10-23T08:45:23.055Z,590.47
2022-10-23T08:47:55.915Z,608.33
2022-10-23T08:50:47.289Z,634.00
2022-10-23T08:53:17.314Z,621.80
2022-10-23T08:55:47.154Z,615.33
2022-10-23T08:58:18.614Z,621.87
2022-10-23T09:00:48.882Z,613.93
2022-10-23T09:03:17.292Z,616.23
2022-10-23T09:05:56.462Z,582.83
2022-10-23T09:08:34.465Z,621.20
2022-10-23T09:11:05.789Z,606.17
2022-10-23T09:13:59.000Z,608.60
2022-10-23T09:16:38.931Z,606.70
2022-10-23T09:19:13.244Z,591.40
2022-10-23T09:21:42.882Z,636.13
2022-10-23T09:24:17.881Z,610.87
2022-10-23T09:26:48.380Z,633.77
2022-10-23T09:29:24.211Z,603.33
2022-10-23T09:31:53.852Z,653.90
2022-10-23T09:34:24.440Z,663.30
2022-10-23T09:36:56.769Z,654.83
2022-10-23T09:39:29.341Z,658.17
2022-10-23T09:41:58.126Z,658.57
2022-10-23T09:44:27.764Z,671.33
2022-10-23T09:47:00.979Z,655.40
2022-10-23T09:49:31.208Z,666.33
2022-10-23T09:52:05.641Z,659.40
2022-10-23T09:54:36.700Z,672.97
2022-10-23T09:57:14.487Z,677.43
2022-10-23T09:59:43.346Z,687.57
2022-10-23T10:02:21.953Z,656.37
2022-10-23T10:05:23.631Z,674.03
2022-10-23T10:08:02.930Z,680.00
2022-10-23T10:10:36.065Z,681.47
2022-10-23T10:13:08.551Z,669.23
2022-10-23T10:15:45.351Z,652.57
2022-10-23T10:18:16.921Z,691.60
2022-10-23T10:20:51.864Z,681.93
2022-10-23T10:23:30.003Z,693.60
2022-10-23T10:26:04.042Z,656.73
2022-10-23T10:28:42.390Z,690.23
2022-10-23T10:31:17.880Z,682.53
2022-10-23T10:33:53.992Z,705.87
2022-10-23T10:36:36.531Z,707.27
2022-10-23T10:39:12.657Z,693.37
2022-10-23T10:41:50.428Z,701.53
2022-10-23T10:44:43.615Z,701.67
2022-10-23T10:47:20.068Z,706.00
2022-10-23T10:49:56.966Z,721.00
2022-10-23T10:52:49.172Z,715.60
2022-10-23T10:55:22.218Z,684.93
2022-10-23T10:57:55.839Z,701.43
2022-10-23T11:00:26.233Z,688.43
2022-10-23T11:02:59.138Z,686.67
2022-10-23T11:05:32.591Z,668.80
2022-10-23T11:08:03.430Z,699.03
2022-10-23T11:10:33.959Z,689.10
2022-10-23T11:13:02.477Z,693.47
2022-10-23T11:15:36.556Z,690.87
2022-10-23T11:18:07.947Z,664.37
2022-10-23T11:20:48.630Z,710.03
2022-10-23T11:23:35.490Z,687.93
2022-10-23T11:26:17.477Z,677.40
2022-10-23T11:28:58.664Z,665.53
2022-10-23T11:31:33.802Z,640.57
2022-10-23T11:34:14.880Z,642.67
2022-10-23T11:36:46.078Z,668.03
2022-10-23T11:39:20.780Z,642.10
2022-10-23T11:41:56.041Z,624.50
2022-10-23T11:44:39.928Z,651.10
2022-10-23T11:47:28.281Z,659.57
2022-10-23T11:50:14.690Z,630.67
2022-10-23T11:53:15.990Z,646.93
2022-10-23T11:56:06.679Z,644.17
2022-10-23T11:58:47.197Z,643.57
2022-10-23T12:01:27.645Z,647.30
2022-10-23T12:03:58.077Z,633.50
2022-10-23T12:06:28.782Z,607.80
2022-10-23T12:09:00.620Z,654.43
2022-10-23T12:11:44.239Z,619.97
2022-10-23T12:14:32.884Z,622.20
2022-10-23T12:17:01.417Z,641.20
2022-10-23T12:19:31.488Z,636.13
2022-10-23T12:22:02.577Z,647.30
2022-10-23T12:24:54.339Z,636.00
2022-10-23T12:27:30.917Z,637.17
2022-10-23T12:30:10.911Z,618.87
2022-10-23T12:32:54.297Z,628.80
2022-10-23T12:36:03.112Z,610.07
2022-10-23T12:39:14.886Z,640.93
2022-10-23T12:41:48.876Z,626.90
2022-10-23T12:44:17.144Z,646.17
2022-10-23T12:46:49.502Z,633.70
2022-10-23T12:49:19.221Z,630.70
2022-10-23T12:51:48.579Z,628.00
2022-10-23T12:54:18.291Z,631.83
2022-10-23T12:57:09.037Z,646.87
2022-10-23T13:01:04.695Z,644.87
2022-10-23T13:03:25.819Z,631.47
2022-10-23T13:05:55.528Z,620.70
2022-10-23T13:08:24.413Z,634.53
2022-10-23T13:11:15.169Z,628.77
2022-10-23T13:13:43.521Z,651.07
2022-10-23T13:16:16.196Z,589.90
2022-10-23T13:18:45.647Z,636.87
2022-10-23T13:21:18.618Z,645.83
2022-10-23T13:23:46.861Z,657.90
2022-10-23T13:26:32.785Z,609.60
2022-10-23T13:29:04.734Z,559.40
2022-10-23T13:31:37.596Z,542.13
2022-10-23T13:34:17.605Z,543.23
2022-10-23T13:36:54.965Z,542.27
2022-10-23T13:39:27.544Z,524.87
2022-10-23T13:41:55.511Z,513.17
2022-10-23T13:44:26.322Z,516.03
2022-10-23T13:46:54.441Z,504.93
2022-10-23T13:49:23.792Z,513.87
2022-10-23T13:51:53.667Z,531.80
2022-10-23T13:54:23.918Z,510.30
2022-10-23T13:56:53.039Z,501.67
2022-10-23T13:59:21.702Z,512.60
2022-10-23T14:01:50.976Z,514.03
2022-10-23T14:04:19.868Z,503.00
2022-10-23T14:06:49.257Z,534.97
2022-10-23T14:09:18.554Z,521.67
2022-10-23T14:11:47.777Z,500.40
2022-10-23T14:14:16.965Z,518.40
2022-10-23T14:16:45.158Z,503.20
2022-10-23T14:19:13.487Z,519.27
2022-10-23T14:21:41.890Z,494.50
2022-10-23T14:24:11.377Z,515.80
2022-10-23T14:26:39.427Z,492.93
2022-10-23T14:29:10.468Z,511.80
2022-10-23T14:31:44.726Z,527.13
2022-10-23T14:34:13.518Z,509.97
2022-10-23T14:36:49.733Z,510.37
2022-10-23T14:39:20.866Z,483.50
2022-10-23T14:41:49.551Z,504.97
2022-10-23T14:44:17.650Z,507.07
2022-10-23T14:46:45.998Z,504.63
2022-10-23T14:49:14.109Z,502.90
2022-10-23T14:51:42.100Z,490.57
2022-10-23T14:54:10.373Z,509.33
2022-10-23T14:56:41.100Z,510.63
2022-10-23T14:59:10.760Z,540.03
2022-10-23T15:01:43.716Z,506.87
2022-10-23T15:04:15.455Z,527.63
2022-10-23T15:06:43.689Z,505.93
2022-10-23T15:09:11.668Z,501.17
2022-10-23T15:11:41.178Z,517.57
2022-10-23T15:14:09.449Z,516.93
2022-10-23T15:16:41.542Z,521.93
2022-10-23T15:19:13.719Z,510.40
2022-10-23T15:21:45.753Z,530.10
2022-10-23T15:24:14.388Z,501.97
2022-10-23T15:26:44.602Z,500.70
2022-10-23T15:29:14.799Z,516.93
2022-10-23T15:31:55.655Z,503.43
2022-10-23T15:34:25.221Z,508.03
2022-10-23T15:36:54.764Z,511.77
2022-10-23T15:39:25.479Z,521.37
2022-10-23T15:41:56.195Z,517.30
2022-10-23T15:44:26.450Z,508.90
2022-10-23T15:46:56.896Z,510.10
2022-10-23T15:49:25.763Z,510.13
2022-10-23T15:51:54.250Z,490.97
2022-10-23T15:54:22.644Z,507.70
2022-10-23T15:56:54.736Z,484.10
2022-10-23T15:59:25.310Z,499.20
2022-10-23T16:01:53.960Z,496.43
2022-10-23T16:04:22.462Z,507.87
2022-10-23T16:06:50.580Z,495.53
2022-10-23T16:09:18.621Z,513.33
2022-10-23T16:11:46.685Z,495.60
2022-10-23T16:14:17.682Z,480.90
2022-10-23T16:16:45.785Z,494.90
2022-10-23T16:19:14.221Z,483.67
2022-10-23T16:21:42.927Z,479.33
2022-10-23T16:24:11.304Z,488.13
2022-10-23T16:26:39.515Z,498.33
2022-10-23T16:29:08.924Z,482.97
2022-10-23T16:31:38.496Z,487.77
2022-10-23T16:34:07.084Z,461.73
2022-10-23T16:36:35.511Z,447.20
2022-10-23T16:39:06.983Z,432.83
2022-10-23T16:41:56.174Z,422.80
2022-10-23T16:44:28.249Z,401.77
2022-10-23T16:47:02.278Z,399.97
2022-10-23T16:49:49.489Z,402.43
2022-10-23T16:52:18.276Z,408.50
2022-10-23T16:54:51.046Z,432.90
2022-10-23T16:57:27.343Z,451.97
2022-10-23T16:59:58.520Z,506.40
2022-10-23T17:02:28.279Z,528.80
2022-10-23T17:04:56.818Z,556.23
2022-10-23T17:07:25.774Z,625.70
2022-10-23T17:09:53.872Z,658.10
2022-10-23T17:12:22.031Z,675.37
2022-10-23T17:14:50.262Z,691.67
2022-10-23T17:17:18.319Z,723.67
2022-10-23T17:19:48.650Z,741.30
2022-10-23T17:22:16.822Z,745.13
2022-10-23T17:24:47.616Z,763.63
2022-10-23T17:27:18.478Z,771.80
2022-10-23T17:29:46.735Z,761.70
2022-10-23T17:32:14.972Z,766.43
2022-10-23T17:34:43.320Z,767.83
2022-10-23T17:37:14.470Z,777.83
2022-10-23T17:39:42.725Z,789.17
2022-10-23T17:42:11.469Z,776.17
2022-10-23T17:44:39.524Z,757.57
2022-10-23T17:47:07.775Z,785.67
2022-10-23T17:49:36.343Z,793.20
2022-10-23T17:52:04.946Z,771.33
2022-10-23T17:54:34.894Z,778.47
2022-10-23T17:57:04.762Z,796.87
2022-10-23T17:59:46.101Z,792.70
2022-10-23T18:02:14.461Z,777.73
2022-10-23T18:04:42.861Z,795.40
2022-10-23T18:07:11.257Z,790.90
2022-10-23T18:09:40.800Z,765.03
2022-10-23T18:12:09.023Z,789.27
2022-10-23T18:14:39.707Z,798.20
2022-10-23T18:17:07.863Z,783.20
2022-10-23T18:19:36.511Z,796.80
2022-10-23T18:22:04.785Z,783.40
2022-10-23T18:24:33.521Z,767.90
2022-10-23T18:27:03.223Z,777.60
2022-10-23T18:29:31.403Z,780.67
2022-10-23T18:31:59.678Z,780.10
2022-10-23T18:34:27.805Z,806.80
2022-10-23T18:36:56.061Z,788.63
2022-10-23T18:39:26.018Z,785.50
2022-10-23T18:41:55.675Z,770.33
2022-10-23T18:44:27.462Z,785.73
2022-10-23T18:46:56.834Z,789.03
2022-10-23T18:49:25.030Z,774.97
2022-10-23T18:51:53.433Z,773.40
2022-10-23T18:54:22.813Z,776.57
2022-10-23T18:56:51.280Z,767.70
2022-10-23T18:59:21.268Z,758.60
2022-10-23T19:01:52.269Z,753.17
2022-10-23T19:04:24.715Z,775.53
2022-10-23T19:06:52.959Z,766.83
2022-10-23T19:09:21.263Z,770.70
2022-10-23T19:11:49.562Z,769.03
2022-10-23T19:14:17.634Z,729.33
2022-10-23T19:16:48.557Z,756.00
2022-10-23T19:19:20.757Z,735.73
2022-10-23T19:21:49.343Z,766.77
2022-10-23T19:24:21.968Z,752.43
2022-10-23T19:26:53.169Z,753.70
2022-10-23T19:29:23.236Z,776.63
2022-10-23T19:31:51.956Z,757.57
2022-10-23T19:34:24.683Z,763.67
2022-10-23T19:36:57.579Z,769.30
2022-10-23T19:39:26.597Z,754.50
2022-10-23T19:42:00.295Z,785.33
2022-10-23T19:44:28.549Z,781.60
2022-10-23T19:46:56.939Z,789.50
2022-10-23T19:49:26.489Z,777.00
2022-10-23T19:51:54.608Z,775.63
2022-10-23T19:54:23.438Z,771.33
2022-10-23T19:56:51.678Z,792.60
2022-10-23T19:59:20.372Z,793.33
2022-10-23T20:01:49.378Z,769.60
2022-10-23T20:04:24.963Z,813.17
2022-10-23T20:06:56.279Z,775.17
2022-10-23T20:09:29.687Z,795.87
2022-10-23T20:11:57.967Z,817.70
2022-10-23T20:14:26.223Z,816.07
2022-10-23T20:16:56.325Z,809.07
2022-10-23T20:19:24.809Z,817.10
2022-10-23T20:21:54.537Z,798.23
2022-10-23T20:24:26.302Z,781.23
2022-10-23T20:26:56.329Z,758.20
2022-10-23T20:29:27.875Z,755.20
2022-10-23T20:31:56.374Z,803.00
2022-10-23T20:34:26.499Z,755.90
2022-10-23T20:36:56.394Z,759.40
2022-10-23T20:39:26.723Z,738.87
2022-10-23T20:42:00.374Z,759.63
2022-10-23T20:44:28.600Z,741.73
2022-10-23T20:46:56.982Z,730.70
2022-10-23T20:49:30.874Z,714.83
2022-10-23T20:52:00.677Z,735.43
2022-10-23T20:54:30.094Z,750.13
2022-10-23T20:56:58.823Z,760.83
2022-10-23T20:59:31.660Z,742.80
2022-10-23T21:02:01.544Z,750.13
2022-10-23T21:04:37.839Z,718.63
2022-10-23T21:07:10.395Z,738.93
2022-10-23T21:09:39.872Z,704.87
2022-10-23T21:12:08.683Z,769.17
2022-10-23T21:14:38.702Z,783.53
2022-10-23T21:17:08.526Z,713.73
2022-10-23T21:19:36.715Z,732.87
2022-10-23T21:22:04.869Z,710.73
2022-10-23T21:24:34.404Z,706.23
2022-10-23T21:27:02.608Z,678.03
2022-10-23T21:29:30.687Z,713.53
2022-10-23T21:32:02.388Z,644.77
2022-10-23T21:34:31.109Z,649.37
2022-10-23T21:37:12.459Z,656.50
2022-10-23T21:39:45.804Z,664.67
2022-10-23T21:42:14.842Z,688.93
2022-10-23T21:44:43.217Z,656.03
2022-10-23T21:47:11.521Z,597.83
2022-10-23T21:49:39.632Z,588.17
2022-10-23T21:52:07.871Z,563.77
2022-10-23T21:54:36.035Z,608.73
2022-10-23T21:57:05.538Z,593.63
2022-10-23T21:59:35.948Z,581.23
2022-10-23T22:02:04.818Z,577.13
2022-10-23T22:04:33.057Z,544.53
2022-10-23T22:07:02.729Z,539.97
2022-10-23T22:09:33.015Z,522.90
2022-10-23T22:12:02.002Z,533.50
2022-10-23T22:14:31.490Z,541.47
2022-10-23T22:16:59.572Z,530.57
2022-10-23T22:19:27.868Z,552.03
2022-10-23T22:21:56.074Z,523.47
2022-10-23T22:24:24.654Z,559.77
2022-10-23T22:26:54.831Z,570.47
2022-10-23T22:29:25.210Z,567.83
2022-10-23T22:31:54.845Z,510.30
2022-10-23T22:34:47.851Z,552.93
2022-10-23T22:37:13.195Z,599.60
2022-10-23T22:39:41.422Z,560.67
2022-10-23T22:42:09.552Z,567.43
2022-10-23T22:44:37.645Z,571.27
2022-10-23T22:47:07.376Z,572.50
2022-10-23T22:49:35.421Z,557.27
2022-10-23T22:52:03.441Z,586.50
2022-10-23T22:54:31.790Z,586.07
2022-10-23T22:56:59.849Z,602.13
2022-10-23T22:59:28.027Z,606.63
2022-10-23T23:01:56.334Z,637.90
2022-10-23T23:04:40.975Z,649.17
2022-10-23T23:07:10.612Z,643.60
2022-10-23T23:09:39.748Z,727.83
2022-10-23T23:12:09.619Z,681.07
2022-10-23T23:14:37.949Z,684.67
2022-10-23T23:17:07.111Z,694.87
2022-10-23T23:19:37.081Z,678.70
2022-10-23T23:22:06.331Z,699.47
2022-10-23T23:24:38.124Z,695.27
2022-10-23T23:27:06.543Z,686.43
2022-10-23T23:29:34.883Z,731.70
2022-10-23T23:32:06.062Z,675.63
2022-10-23T23:34:34.178Z,707.70
2022-10-23T23:37:03.630Z,646.03
2022-10-23T23:39:34.164Z,674.13
2022-10-23T23:42:02.280Z,645.07
2022-10-23T23:44:30.481Z,704.47
2022-10-23T23:46:58.635Z,682.17
2022-10-23T23:49:26.773Z,713.77
2022-10-23T23:51:54.876Z,682.73
2022-10-23T23:54:24.370Z,681.23
2022-10-23T23:56:52.485Z,683.43
2022-10-23T23:59:20.649Z,687.87
